Time;durP1;ratioP1;P1;durP2;ratioP2;P2;SDS_P1;SDS_P2;PMS_P1;PMS_P2;Temp;Humidity;BMP_temperature;BMP_pressure;BME280_temperature;BME280_humidity;BME280_pressure;Samples;Min_cycle;Max_cycle;Signal;HPM_P1;HPM_P2
2022/07/28 00:02:07;;;;;;;;;;;14.60;92.40;;;;;;5111662;28;20030;-72
2022/07/28 00:04:33;;;;;;;;;;;14.60;92.80;;;;;;5110517;28;19928;-73
2022/07/28 00:06:59;;;;;;;;;;;14.60;92.70;;;;;;5111242;28;19935;-73
2022/07/28 00:09:25;;;;;;;;;;;14.50;92.90;;;;;;5110702;28;19930;-72
2022/07/28 00:11:50;;;;;;;;;;;14.50;93.10;;;;;;5111954;28;19970;-72
2022/07/28 00:14:16;;;;;;;;;;;14.40;93.20;;;;;;5109935;28;19932;-72
2022/07/28 00:16:41;;;;;;;;;;;14.40;93.40;;;;;;5111381;28;20244;-72
2022/07/28 00:19:07;;;;;;;;;;;14.40;93.50;;;;;;5111675;28;20300;-72
2022/07/28 00:21:32;;;;;;;;;;;14.30;93.70;;;;;;5111236;28;20373;-72
2022/07/28 00:23:58;;;;;;;;;;;14.30;93.80;;;;;;5111044;28;20305;-72
2022/07/28 00:26:23;;;;;;;;;;;14.30;94.10;;;;;;5111764;28;20393;-72
2022/07/28 00:28:49;;;;;;;;;;;14.30;94.20;;;;;;5111205;28;19938;-72
2022/07/28 00:31:14;;;;;;;;;;;14.30;94.50;;;;;;5110838;28;19924;-72
2022/07/28 00:33:40;;;;;;;;;;;14.40;94.60;;;;;;5110499;28;19967;-72
2022/07/28 00:36:09;;;;;;;;;;;14.40;94.70;;;;;;5111314;27;20465;-73
2022/07/28 00:38:35;;;;;;;;;;;14.40;94.80;;;;;;5110632;28;19924;-72
2022/07/28 00:41:10;;;;;;;;;;;14.40;94.60;;;;;;5110585;28;19935;-72
2022/07/28 00:43:36;;;;;;;;;;;14.40;94.60;;;;;;5109692;28;19924;-73
2022/07/28 00:46:02;;;;;;;;;;;14.40;94.80;;;;;;5110805;28;19945;-72
2022/07/28 00:48:27;;;;;;;;;;;14.40;94.70;;;;;;5109831;28;19928;-72
2022/07/28 00:50:53;;;;;;;;;;;14.30;94.80;;;;;;5109853;28;19923;-72
2022/07/28 00:53:19;;;;;;;;;;;14.30;94.90;;;;;;5109498;28;19980;-72
2022/07/28 00:55:44;;;;;;;;;;;14.20;94.70;;;;;;5110451;28;19924;-72
2022/07/28 00:58:10;;;;;;;;;;;14.20;95.00;;;;;;5092893;28;20409;-72
2022/07/28 01:00:35;;;;;;;;;;;14.20;95.10;;;;;;5100339;28;19924;-72
2022/07/28 01:03:02;;;;;;;;;;;14.10;95.10;;;;;;5105624;28;19924;-72
2022/07/28 01:05:33;;;;;;;;;;;14.10;95.20;;;;;;5089988;28;19970;-72
2022/07/28 01:08:11;;;;;;;;;;;14.20;95.50;;;;;;5106952;28;19924;-72
2022/07/28 01:10:54;;;;;;;;;;;14.20;95.60;;;;;;5110223;28;20396;-73
2022/07/28 01:13:43;;;;;;;;;;;14.20;95.50;;;;;;5089989;28;20424;-72
2022/07/28 01:16:09;;;;;;;;;;;14.20;95.60;;;;;;5095102;28;21155;-72
2022/07/28 01:18:37;;;;;;;;;;;14.20;95.70;;;;;;5097796;28;19924;-73
2022/07/28 01:21:07;;;;;;;;;;;14.20;95.70;;;;;;5090405;28;20346;-72
2022/07/28 01:23:32;;;;;;;;;;;14.20;95.90;;;;;;5089956;28;19976;-72
2022/07/28 01:26:16;;;;;;;;;;;14.10;95.80;;;;;;5109498;28;20377;-72
2022/07/28 01:29:07;;;;;;;;;;;14.20;96.40;;;;;;5096668;28;19931;-74
2022/07/28 01:31:38;;;;;;;;;;;14.20;96.20;;;;;;5093021;28;19924;-72
2022/07/28 01:34:13;;;;;;;;;;;14.30;96.30;;;;;;5089215;28;19959;-72
2022/07/28 01:36:41;;;;;;;;;;;14.30;96.40;;;;;;5104477;28;20318;-72
2022/07/28 01:39:08;;;;;;;;;;;14.30;96.40;;;;;;5096827;28;19931;-72
2022/07/28 01:41:35;;;;;;;;;;;14.40;96.40;;;;;;5108528;28;19958;-72
2022/07/28 01:44:03;;;;;;;;;;;14.40;96.80;;;;;;5105839;28;19967;-72
2022/07/28 01:46:29;;;;;;;;;;;14.40;96.80;;;;;;5091836;28;19928;-72
2022/07/28 01:48:56;;;;;;;;;;;14.50;96.90;;;;;;5110216;28;19923;-73
2022/07/28 01:51:22;;;;;;;;;;;14.50;96.90;;;;;;5096565;28;19928;-72
2022/07/28 01:53:48;;;;;;;;;;;14.50;97.00;;;;;;5109605;28;19923;-73
2022/07/28 01:56:16;;;;;;;;;;;14.50;97.20;;;;;;5104876;28;19935;-73
2022/07/28 01:58:42;;;;;;;;;;;14.50;97.30;;;;;;5109849;28;19923;-72
2022/07/28 02:01:09;;;;;;;;;;;14.60;97.50;;;;;;5109972;28;19923;-72
2022/07/28 02:03:35;;;;;;;;;;;14.60;97.60;;;;;;5109029;28;20381;-72
2022/07/28 02:06:02;;;;;;;;;;;14.70;97.50;;;;;;5109603;28;20372;-72
2022/07/28 02:08:29;;;;;;;;;;;14.70;97.70;;;;;;5108422;28;19931;-72
2022/07/28 02:13:40;;;;;;;;;;;14.70;97.80;;;;;;5101683;28;19927;-73
2022/07/28 02:16:07;;;;;;;;;;;14.70;97.90;;;;;;5089992;28;19977;-72
2022/07/28 02:18:34;;;;;;;;;;;14.70;98.10;;;;;;5090442;28;19924;-72
2022/07/28 02:21:01;;;;;;;;;;;14.60;98.20;;;;;;5089598;28;19928;-72
2022/07/28 02:23:27;;;;;;;;;;;14.60;98.30;;;;;;5105458;28;20018;-72
2022/07/28 02:25:53;;;;;;;;;;;14.60;98.30;;;;;;5109885;28;20488;-72
2022/07/28 02:28:20;;;;;;;;;;;14.60;98.50;;;;;;5109732;28;19963;-72
2022/07/28 02:30:48;;;;;;;;;;;14.60;98.50;;;;;;5109813;28;19935;-73
2022/07/28 02:33:16;;;;;;;;;;;14.50;98.70;;;;;;5109381;28;19934;-72
2022/07/28 02:35:44;;;;;;;;;;;14.50;98.90;;;;;;5109410;28;19928;-72
2022/07/28 02:38:33;;;;;;;;;;;14.50;98.90;;;;;;5109456;28;20011;-72
2022/07/28 02:41:02;;;;;;;;;;;14.50;99.00;;;;;;5098671;28;19923;-72
2022/07/28 02:43:28;;;;;;;;;;;14.60;99.10;;;;;;5109730;28;19924;-72
2022/07/28 02:45:55;;;;;;;;;;;14.60;99.10;;;;;;5109297;28;19930;-72
2022/07/28 02:48:23;;;;;;;;;;;14.60;98.90;;;;;;5101651;28;19931;-72
2022/07/28 02:50:50;;;;;;;;;;;14.60;99.00;;;;;;5089835;28;19928;-72
2022/07/28 02:53:15;;;;;;;;;;;14.60;99.20;;;;;;5102658;28;19928;-72
2022/07/28 02:55:42;;;;;;;;;;;14.50;99.20;;;;;;5089729;28;19924;-72
2022/07/28 02:58:09;;;;;;;;;;;14.60;99.50;;;;;;5109175;28;19923;-72
2022/07/28 03:00:35;;;;;;;;;;;14.60;99.50;;;;;;5109358;28;20389;-73
2022/07/28 03:03:01;;;;;;;;;;;14.60;99.50;;;;;;5096088;28;19934;-72
2022/07/28 03:05:27;;;;;;;;;;;14.60;99.60;;;;;;5109830;28;19931;-72
2022/07/28 03:07:53;;;;;;;;;;;14.60;99.50;;;;;;5113130;28;19992;-72
2022/07/28 03:10:24;;;;;;;;;;;14.60;99.60;;;;;;5112917;28;19924;-72
2022/07/28 03:12:50;;;;;;;;;;;14.50;99.60;;;;;;5100071;28;19924;-72
2022/07/28 03:15:16;;;;;;;;;;;14.60;99.70;;;;;;5112309;28;19962;-72
2022/07/28 03:17:41;;;;;;;;;;;14.50;99.90;;;;;;5113173;28;19962;-72
2022/07/28 03:20:08;;;;;;;;;;;14.60;99.90;;;;;;5112571;28;19923;-72
2022/07/28 03:22:33;;;;;;;;;;;14.60;99.90;;;;;;5112950;28;20022;-72
2022/07/28 03:24:59;;;;;;;;;;;14.60;99.90;;;;;;5112398;28;20026;-74
2022/07/28 03:27:30;;;;;;;;;;;14.70;99.80;;;;;;5112823;28;19988;-72
2022/07/28 03:30:06;;;;;;;;;;;14.60;99.70;;;;;;5112250;28;19930;-72
2022/07/28 03:32:33;;;;;;;;;;;14.60;99.60;;;;;;5110895;28;19924;-73
2022/07/28 03:34:59;;;;;;;;;;;14.60;99.70;;;;;;5111284;28;20029;-72
2022/07/28 03:37:27;;;;;;;;;;;14.60;99.50;;;;;;5112675;28;19936;-72
2022/07/28 03:39:55;;;;;;;;;;;14.60;99.50;;;;;;5111013;28;21148;-72
2022/07/28 03:42:21;;;;;;;;;;;14.60;99.60;;;;;;5111712;28;19924;-73
2022/07/28 03:44:47;;;;;;;;;;;14.60;99.60;;;;;;5110465;28;19924;-72
2022/07/28 03:47:13;;;;;;;;;;;14.60;99.60;;;;;;5112426;27;19934;-72
2022/07/28 03:49:39;;;;;;;;;;;14.60;99.50;;;;;;5111952;27;19930;-72
2022/07/28 03:52:05;;;;;;;;;;;14.60;99.60;;;;;;5111740;28;19924;-73
2022/07/28 03:54:30;;;;;;;;;;;14.60;99.90;;;;;;5111774;28;19923;-72
2022/07/28 03:56:56;;;;;;;;;;;14.60;99.90;;;;;;5112032;28;19924;-73
2022/07/28 03:59:22;;;;;;;;;;;14.70;99.90;;;;;;5110083;28;19924;-73
2022/07/28 04:01:48;;;;;;;;;;;14.70;99.90;;;;;;5110967;28;19923;-72
2022/07/28 04:04:13;;;;;;;;;;;14.70;99.90;;;;;;5110576;28;19968;-73
2022/07/28 04:06:39;;;;;;;;;;;14.70;99.80;;;;;;5111125;28;20026;-72
2022/07/28 04:09:04;;;;;;;;;;;14.70;99.70;;;;;;5110587;28;19963;-73
2022/07/28 04:11:30;;;;;;;;;;;14.70;99.50;;;;;;5110952;28;20326;-72
2022/07/28 04:13:55;;;;;;;;;;;14.70;99.30;;;;;;5110613;28;20020;-73
2022/07/28 04:16:21;;;;;;;;;;;14.70;99.00;;;;;;5110705;28;19923;-72
2022/07/28 04:18:47;;;;;;;;;;;14.70;99.10;;;;;;5110178;28;19939;-72
2022/07/28 04:21:13;;;;;;;;;;;14.70;99.20;;;;;;5109035;28;20036;-72
2022/07/28 04:23:38;;;;;;;;;;;14.70;99.30;;;;;;5111484;28;20014;-73
2022/07/28 04:26:04;;;;;;;;;;;14.70;99.40;;;;;;5110571;28;19955;-72
2022/07/28 04:28:29;;;;;;;;;;;14.70;99.60;;;;;;5109457;28;20366;-72
2022/07/28 04:30:55;;;;;;;;;;;14.70;99.60;;;;;;5111544;28;19924;-72
2022/07/28 04:33:20;;;;;;;;;;;14.70;99.50;;;;;;5111139;28;20019;-72
2022/07/28 04:35:46;;;;;;;;;;;14.60;99.40;;;;;;5111213;28;19967;-73
2022/07/28 04:38:13;;;;;;;;;;;14.60;99.90;;;;;;5109027;28;20024;-72
2022/07/28 04:40:40;;;;;;;;;;;14.60;99.80;;;;;;5110500;28;19928;-72
2022/07/28 04:43:06;;;;;;;;;;;14.50;99.60;;;;;;5110678;28;19923;-72
2022/07/28 04:45:32;;;;;;;;;;;14.60;99.70;;;;;;5111685;28;20416;-72
2022/07/28 04:47:57;;;;;;;;;;;14.60;99.90;;;;;;5109576;28;19932;-71
2022/07/28 04:50:23;;;;;;;;;;;14.60;99.90;;;;;;5106542;28;19959;-71
2022/07/28 04:52:48;;;;;;;;;;;14.70;99.90;;;;;;5107276;28;19924;-72
2022/07/28 04:55:14;;;;;;;;;;;14.70;99.90;;;;;;5106309;28;20003;-72
2022/07/28 04:57:40;;;;;;;;;;;14.70;99.90;;;;;;5122437;27;20015;-71
2022/07/28 05:00:11;;;;;;;;;;;14.70;99.90;;;;;;5110425;28;19924;-71
2022/07/28 05:02:37;;;;;;;;;;;14.70;99.90;;;;;;5110666;28;20011;-72
2022/07/28 05:05:03;;;;;;;;;;;14.80;99.90;;;;;;5110402;28;20018;-72
2022/07/28 05:07:28;;;;;;;;;;;14.80;99.90;;;;;;5110171;27;19930;-71
2022/07/28 05:09:54;;;;;;;;;;;14.80;99.90;;;;;;5110719;28;19924;-72
2022/07/28 05:12:19;;;;;;;;;;;14.90;99.90;;;;;;5109237;28;19927;-72
2022/07/28 05:14:45;;;;;;;;;;;14.80;99.90;;;;;;5109512;28;20351;-72
2022/07/28 05:17:10;;;;;;;;;;;14.80;99.90;;;;;;5110539;28;19923;-72
2022/07/28 05:19:36;;;;;;;;;;;14.90;99.90;;;;;;5109885;28;20003;-71
2022/07/28 05:22:01;;;;;;;;;;;14.90;99.90;;;;;;5108754;28;20308;-72
2022/07/28 05:24:27;;;;;;;;;;;14.90;99.90;;;;;;5110437;28;19969;-72
2022/07/28 05:26:52;;;;;;;;;;;14.90;99.90;;;;;;5110081;28;20297;-72
2022/07/28 05:29:18;;;;;;;;;;;14.90;99.90;;;;;;5109336;28;19928;-72
2022/07/28 05:31:43;;;;;;;;;;;15.00;99.90;;;;;;5108724;28;19924;-72
2022/07/28 05:34:09;;;;;;;;;;;15.00;99.90;;;;;;5110119;28;19924;-72
2022/07/28 05:36:35;;;;;;;;;;;15.00;99.90;;;;;;5109868;28;19946;-71
2022/07/28 05:39:00;;;;;;;;;;;15.00;99.90;;;;;;5109737;28;21280;-72
2022/07/28 05:41:26;;;;;;;;;;;15.00;99.90;;;;;;5109403;28;19931;-73
2022/07/28 05:43:51;;;;;;;;;;;15.10;99.90;;;;;;5097151;28;20015;-73
2022/07/28 05:46:17;;;;;;;;;;;15.10;99.90;;;;;;5087548;28;20698;-73
2022/07/28 05:48:42;;;;;;;;;;;15.10;99.90;;;;;;5105985;28;19980;-72
2022/07/28 05:51:08;;;;;;;;;;;15.10;99.90;;;;;;5107034;28;20408;-72
2022/07/28 05:53:33;;;;;;;;;;;15.10;99.90;;;;;;5099153;28;20038;-73
2022/07/28 05:55:59;;;;;;;;;;;15.10;99.90;;;;;;5107820;28;19924;-72
2022/07/28 05:58:24;;;;;;;;;;;15.10;99.90;;;;;;5109373;28;19935;-71
2022/07/28 06:00:50;;;;;;;;;;;15.10;99.90;;;;;;5109704;28;19923;-72
2022/07/28 06:03:15;;;;;;;;;;;15.20;99.90;;;;;;5107034;28;19946;-72
2022/07/28 06:05:41;;;;;;;;;;;15.30;99.90;;;;;;5096484;28;20329;-73
2022/07/28 06:08:06;;;;;;;;;;;15.30;99.90;;;;;;5103960;28;20396;-73
2022/07/28 06:13:16;;;;;;;;;;;15.40;99.90;;;;;;5100412;28;19927;-73
2022/07/28 06:15:43;;;;;;;;;;;15.40;99.90;;;;;;5101846;28;19924;-73
2022/07/28 06:18:08;;;;;;;;;;;15.30;99.90;;;;;;5102872;28;20457;-73
2022/07/28 06:20:34;;;;;;;;;;;15.30;99.90;;;;;;5096767;28;20019;-73
2022/07/28 06:22:59;;;;;;;;;;;15.30;99.90;;;;;;5106232;28;19924;-73
2022/07/28 06:25:26;;;;;;;;;;;15.30;99.90;;;;;;5107239;28;19935;-72
2022/07/28 06:27:54;;;;;;;;;;;15.30;99.90;;;;;;5109372;28;20057;-73
2022/07/28 06:30:20;;;;;;;;;;;15.30;99.90;;;;;;5095130;28;19924;-73
2022/07/28 06:32:46;;;;;;;;;;;15.30;99.90;;;;;;5090551;28;19928;-72
2022/07/28 06:35:15;;;;;;;;;;;15.30;99.90;;;;;;5104955;28;19931;-72
2022/07/28 06:37:43;;;;;;;;;;;15.30;99.90;;;;;;5093952;28;19935;-72
2022/07/28 06:40:12;;;;;;;;;;;15.30;99.90;;;;;;5094098;28;19924;-72
2022/07/28 06:42:38;;;;;;;;;;;15.30;99.90;;;;;;5096271;28;19985;-73
2022/07/28 06:45:04;;;;;;;;;;;15.30;99.90;;;;;;5111720;28;20309;-73
2022/07/28 06:47:30;;;;;;;;;;;15.40;99.90;;;;;;5109461;28;19923;-74
2022/07/28 06:49:55;;;;;;;;;;;15.40;99.90;;;;;;5107073;28;20011;-74
2022/07/28 06:52:21;;;;;;;;;;;15.40;99.90;;;;;;5102943;27;19974;-74
2022/07/28 06:54:49;;;;;;;;;;;15.40;99.90;;;;;;5110759;28;19923;-73
2022/07/28 06:57:15;;;;;;;;;;;15.50;99.90;;;;;;5112032;27;19924;-72
2022/07/28 06:59:40;;;;;;;;;;;15.50;99.80;;;;;;5111496;28;19923;-71
2022/07/28 07:02:06;;;;;;;;;;;15.50;99.90;;;;;;5111629;28;20357;-73
2022/07/28 07:04:32;;;;;;;;;;;15.60;99.90;;;;;;5118351;27;19954;-73
2022/07/28 07:06:58;;;;;;;;;;;15.60;99.40;;;;;;5111873;28;19932;-72
2022/07/28 07:09:23;;;;;;;;;;;15.70;99.50;;;;;;5117178;27;19924;-73
2022/07/28 07:11:49;;;;;;;;;;;15.70;99.30;;;;;;5118548;27;20282;-73
2022/07/28 07:14:14;;;;;;;;;;;15.80;98.80;;;;;;5117605;27;19924;-72
2022/07/28 07:16:40;;;;;;;;;;;15.80;98.60;;;;;;5109439;28;19934;-72
2022/07/28 07:19:05;;;;;;;;;;;15.90;98.30;;;;;;5111299;28;19928;-74
2022/07/28 07:21:31;;;;;;;;;;;15.90;98.50;;;;;;5110085;28;20351;-74
2022/07/28 07:23:57;;;;;;;;;;;16.00;98.00;;;;;;5112304;28;19924;-74
2022/07/28 07:26:23;;;;;;;;;;;16.20;97.80;;;;;;5112314;28;19959;-73
2022/07/28 07:28:48;;;;;;;;;;;16.20;97.50;;;;;;5099243;28;19967;-73
2022/07/28 07:31:14;;;;;;;;;;;16.30;97.30;;;;;;5111412;28;19930;-74
2022/07/28 07:33:39;;;;;;;;;;;16.30;97.20;;;;;;5105969;28;19970;-73
2022/07/28 07:36:05;;;;;;;;;;;16.40;96.90;;;;;;5104412;28;20007;-74
2022/07/28 07:38:31;;;;;;;;;;;16.50;96.40;;;;;;5110852;28;19930;-73
2022/07/28 07:40:56;;;;;;;;;;;16.50;96.10;;;;;;5112066;28;20003;-74
2022/07/28 07:43:22;;;;;;;;;;;16.60;96.60;;;;;;5105290;28;19925;-73
2022/07/28 07:45:47;;;;;;;;;;;16.70;96.50;;;;;;5093287;28;19923;-73
2022/07/28 07:48:13;;;;;;;;;;;16.80;96.40;;;;;;5111818;28;19931;-73
2022/07/28 07:50:38;;;;;;;;;;;16.90;96.30;;;;;;5107347;28;19974;-73
2022/07/28 07:53:04;;;;;;;;;;;17.00;96.00;;;;;;5095769;28;20023;-72
2022/07/28 07:55:29;;;;;;;;;;;17.10;95.70;;;;;;5097967;28;19932;-72
2022/07/28 07:57:55;;;;;;;;;;;17.20;95.30;;;;;;5108061;28;19931;-73
2022/07/28 08:00:21;;;;;;;;;;;17.30;94.60;;;;;;5111796;28;19927;-73
2022/07/28 08:02:46;;;;;;;;;;;17.40;94.40;;;;;;5103820;28;19923;-72
2022/07/28 08:05:12;;;;;;;;;;;17.50;94.30;;;;;;5119978;27;20298;-71
2022/07/28 08:07:38;;;;;;;;;;;17.60;93.80;;;;;;5102174;28;19924;-73
2022/07/28 08:10:04;;;;;;;;;;;17.70;93.90;;;;;;5099599;28;19931;-74
2022/07/28 08:12:30;;;;;;;;;;;17.80;93.90;;;;;;5097748;28;19931;-74
2022/07/28 08:14:56;;;;;;;;;;;17.90;93.90;;;;;;5097646;28;19928;-73
2022/07/28 08:17:22;;;;;;;;;;;18.00;93.70;;;;;;5101262;28;19924;-72
2022/07/28 08:19:47;;;;;;;;;;;18.10;93.30;;;;;;5107967;28;19989;-72
2022/07/28 08:22:14;;;;;;;;;;;18.20;92.80;;;;;;5104831;28;20324;-73
2022/07/28 08:24:40;;;;;;;;;;;18.30;92.70;;;;;;5104952;28;19928;-73
2022/07/28 08:27:05;;;;;;;;;;;18.30;92.80;;;;;;5100808;28;19978;-73
2022/07/28 08:29:31;;;;;;;;;;;18.40;92.00;;;;;;5101012;28;19928;-73
2022/07/28 08:31:57;;;;;;;;;;;18.50;92.20;;;;;;5107586;28;19923;-73
2022/07/28 08:34:24;;;;;;;;;;;18.60;91.90;;;;;;5104764;28;19935;-73
2022/07/28 08:36:49;;;;;;;;;;;18.80;92.00;;;;;;5110313;28;19928;-74
2022/07/28 08:39:15;;;;;;;;;;;19.00;91.30;;;;;;5105564;28;19977;-73
2022/07/28 08:41:45;;;;;;;;;;;19.10;91.20;;;;;;5103223;28;19924;-72
2022/07/28 08:44:13;;;;;;;;;;;19.30;91.10;;;;;;5089514;28;20015;-72
2022/07/28 08:46:39;;;;;;;;;;;19.30;90.40;;;;;;5104878;28;19969;-72
2022/07/28 08:49:06;;;;;;;;;;;19.30;90.60;;;;;;5109918;28;20391;-70
2022/07/28 08:51:32;;;;;;;;;;;19.30;90.70;;;;;;5102966;28;19923;-71
2022/07/28 08:53:58;;;;;;;;;;;19.40;90.60;;;;;;5110550;28;19996;-71
2022/07/28 08:56:23;;;;;;;;;;;19.60;90.70;;;;;;5103259;28;19934;-71
2022/07/28 08:58:49;;;;;;;;;;;19.80;90.70;;;;;;5101673;28;19999;-71
2022/07/28 09:01:15;;;;;;;;;;;20.00;90.40;;;;;;5104649;28;20366;-71
2022/07/28 09:03:40;;;;;;;;;;;20.10;90.30;;;;;;5098474;28;19932;-71
2022/07/28 09:06:06;;;;;;;;;;;20.10;88.50;;;;;;5106524;28;20380;-71
2022/07/28 09:08:32;;;;;;;;;;;20.10;88.20;;;;;;5110109;28;19971;-71
2022/07/28 09:10:57;;;;;;;;;;;20.10;87.60;;;;;;5099125;28;19938;-71
2022/07/28 09:13:23;;;;;;;;;;;20.10;87.20;;;;;;5107725;28;19931;-71
2022/07/28 09:15:48;;;;;;;;;;;20.00;87.70;;;;;;5105298;28;20007;-71
2022/07/28 09:18:15;;;;;;;;;;;20.00;86.90;;;;;;5107367;28;19923;-71
2022/07/28 09:20:41;;;;;;;;;;;20.00;86.90;;;;;;5092569;28;20557;-71
2022/07/28 09:23:07;;;;;;;;;;;20.00;87.10;;;;;;5110089;27;20047;-71
2022/07/28 09:25:33;;;;;;;;;;;20.10;87.90;;;;;;5096960;28;19931;-71
2022/07/28 09:28:09;;;;;;;;;;;20.30;86.80;;;;;;5108807;28;20275;-71
2022/07/28 09:30:36;;;;;;;;;;;20.40;86.50;;;;;;5105355;28;19924;-71
2022/07/28 09:33:11;;;;;;;;;;;20.40;85.20;;;;;;5105769;28;19923;-72
2022/07/28 09:35:53;;;;;;;;;;;20.40;85.40;;;;;;5113803;27;20305;-72
2022/07/28 09:38:19;;;;;;;;;;;20.60;85.20;;;;;;5115481;27;21070;-71
2022/07/28 09:40:58;;;;;;;;;;;20.70;84.10;;;;;;5100092;28;19982;-71
2022/07/28 09:43:30;;;;;;;;;;;20.80;85.30;;;;;;5096655;28;19971;-71
2022/07/28 09:46:03;;;;;;;;;;;20.90;84.30;;;;;;5108700;28;20414;-71
2022/07/28 09:48:28;;;;;;;;;;;21.00;83.60;;;;;;5106918;28;19931;-71
2022/07/28 09:51:07;;;;;;;;;;;21.00;84.30;;;;;;5109863;28;19936;-71
2022/07/28 09:53:33;;;;;;;;;;;21.10;83.10;;;;;;5098720;28;19976;-72
2022/07/28 09:55:59;;;;;;;;;;;21.10;82.90;;;;;;5109135;28;19924;-72
2022/07/28 09:58:26;;;;;;;;;;;21.00;82.10;;;;;;5109041;28;19934;-71
2022/07/28 10:01:21;;;;;;;;;;;20.80;83.00;;;;;;5095580;28;19971;-72
2022/07/28 10:03:54;;;;;;;;;;;20.70;83.00;;;;;;5078256;28;20391;-71
2022/07/28 10:06:27;;;;;;;;;;;20.50;82.90;;;;;;5109788;28;19928;-71
2022/07/28 10:08:53;;;;;;;;;;;20.40;83.90;;;;;;5107948;28;19924;-71
2022/07/28 10:11:23;;;;;;;;;;;20.30;83.90;;;;;;5098639;28;19927;-71
2022/07/28 10:13:54;;;;;;;;;;;20.20;83.90;;;;;;5100284;28;19924;-72
2022/07/28 10:16:21;;;;;;;;;;;20.00;83.60;;;;;;5112373;28;20554;-72
2022/07/28 10:18:47;;;;;;;;;;;19.90;83.70;;;;;;5110865;28;19966;-71
2022/07/28 10:21:14;;;;;;;;;;;19.70;85.40;;;;;;5103735;28;19971;-72
2022/07/28 10:23:43;;;;;;;;;;;19.70;84.70;;;;;;5104360;28;19939;-71
2022/07/28 10:26:09;;;;;;;;;;;19.60;85.10;;;;;;5094318;28;19924;-71
2022/07/28 10:28:35;;;;;;;;;;;19.50;85.80;;;;;;5102013;28;20023;-71
2022/07/28 10:31:03;;;;;;;;;;;19.50;85.40;;;;;;5107311;28;19931;-71
2022/07/28 10:33:32;;;;;;;;;;;19.40;85.10;;;;;;5112052;27;19928;-72
2022/07/28 10:35:58;;;;;;;;;;;19.30;84.90;;;;;;5111225;28;20449;-72
2022/07/28 10:38:32;;;;;;;;;;;19.20;85.00;;;;;;5111382;27;19946;-71
2022/07/28 10:41:00;;;;;;;;;;;19.10;84.90;;;;;;5111654;28;20279;-72
2022/07/28 10:43:26;;;;;;;;;;;19.10;83.90;;;;;;5116244;27;19928;-72
2022/07/28 10:45:52;;;;;;;;;;;19.00;84.20;;;;;;5112108;28;20460;-72
2022/07/28 10:48:20;;;;;;;;;;;19.00;83.90;;;;;;5111807;27;20294;-72
2022/07/28 10:50:46;;;;;;;;;;;19.00;84.40;;;;;;5111642;28;20504;-72
2022/07/28 10:53:17;;;;;;;;;;;19.00;82.90;;;;;;5105677;28;19930;-71
2022/07/28 10:55:51;;;;;;;;;;;19.00;82.90;;;;;;5106773;28;19930;-72
2022/07/28 10:58:19;;;;;;;;;;;19.10;84.10;;;;;;5111291;27;20347;-71
2022/07/28 11:00:46;;;;;;;;;;;19.20;84.10;;;;;;5099033;28;20015;-71
2022/07/28 11:03:32;;;;;;;;;;;19.30;84.60;;;;;;5111117;28;19932;-72
2022/07/28 11:05:58;;;;;;;;;;;19.40;84.10;;;;;;5107974;28;19970;-71
2022/07/28 11:08:27;;;;;;;;;;;19.40;83.50;;;;;;5104210;28;19963;-72
2022/07/28 11:10:53;;;;;;;;;;;19.40;83.10;;;;;;5111100;28;19931;-72
2022/07/28 11:13:21;;;;;;;;;;;19.60;83.60;;;;;;5098735;28;19924;-71
2022/07/28 11:15:47;;;;;;;;;;;19.70;83.80;;;;;;5103736;28;19923;-73
2022/07/28 11:18:12;;;;;;;;;;;19.90;83.10;;;;;;5106156;28;19972;-72
2022/07/28 11:20:56;;;;;;;;;;;20.10;82.50;;;;;;5104065;27;19924;-72
2022/07/28 11:23:42;;;;;;;;;;;20.20;82.70;;;;;;5097309;27;19930;-73
2022/07/28 11:26:19;;;;;;;;;;;20.40;82.80;;;;;;5101746;28;19984;-73
2022/07/28 11:29:03;;;;;;;;;;;20.70;82.00;;;;;;5103269;28;19927;-72
2022/07/28 11:31:43;;;;;;;;;;;20.90;81.00;;;;;;5116590;27;19963;-72
2022/07/28 11:34:20;;;;;;;;;;;21.20;80.80;;;;;;5111795;28;19931;-72
2022/07/28 11:37:14;;;;;;;;;;;21.60;80.00;;;;;;5111087;28;20293;-71
2022/07/28 11:39:41;;;;;;;;;;;21.80;79.30;;;;;;5081155;28;19924;-72
2022/07/28 11:42:26;;;;;;;;;;;22.10;78.40;;;;;;5103297;28;19924;-72
2022/07/28 11:44:55;;;;;;;;;;;22.30;78.00;;;;;;5111184;28;19924;-71
2022/07/28 11:47:22;;;;;;;;;;;22.50;77.10;;;;;;5110378;28;19950;-72
2022/07/28 11:50:06;;;;;;;;;;;22.70;77.40;;;;;;5111951;28;20339;-71
2022/07/28 11:52:31;;;;;;;;;;;23.00;76.20;;;;;;5111163;28;20496;-72
2022/07/28 11:54:57;;;;;;;;;;;23.40;74.10;;;;;;5091835;28;20010;-71
2022/07/28 11:57:24;;;;;;;;;;;23.70;72.30;;;;;;5108294;27;19923;-71
2022/07/28 11:59:52;;;;;;;;;;;24.00;72.10;;;;;;5111599;28;20594;-71
2022/07/28 12:02:18;;;;;;;;;;;24.10;73.30;;;;;;5106515;28;20617;-71
2022/07/28 12:04:44;;;;;;;;;;;24.10;73.10;;;;;;5112262;28;20307;-71
2022/07/28 12:07:11;;;;;;;;;;;24.10;72.10;;;;;;5110572;28;19923;-72
2022/07/28 12:09:37;;;;;;;;;;;24.10;71.90;;;;;;5108596;28;19987;-72
2022/07/28 12:12:05;;;;;;;;;;;24.10;73.10;;;;;;5098310;28;20011;-72
2022/07/28 12:14:36;;;;;;;;;;;24.10;72.50;;;;;;5102121;28;19976;-72
2022/07/28 12:17:02;;;;;;;;;;;24.20;72.50;;;;;;5096069;28;20378;-72
2022/07/28 12:19:29;;;;;;;;;;;24.20;71.40;;;;;;5111601;28;19930;-71
2022/07/28 12:21:55;;;;;;;;;;;24.00;71.50;;;;;;5108100;28;19924;-72
2022/07/28 12:24:27;;;;;;;;;;;24.00;71.00;;;;;;5101495;28;19928;-73
2022/07/28 12:26:52;;;;;;;;;;;24.00;70.60;;;;;;5107156;28;19924;-73
2022/07/28 12:29:18;;;;;;;;;;;23.90;70.10;;;;;;5106983;28;20359;-72
2022/07/28 12:31:54;;;;;;;;;;;23.90;70.00;;;;;;5109191;28;20725;-73
2022/07/28 12:34:20;;;;;;;;;;;23.80;71.00;;;;;;5111011;28;19980;-72
2022/07/28 12:36:46;;;;;;;;;;;23.70;69.60;;;;;;5103941;28;19930;-71
2022/07/28 12:39:11;;;;;;;;;;;23.60;70.20;;;;;;5100251;28;19974;-72
2022/07/28 12:41:37;;;;;;;;;;;23.50;70.10;;;;;;5104408;28;19924;-72
2022/07/28 12:44:03;;;;;;;;;;;23.20;69.40;;;;;;5105762;28;20297;-72
2022/07/28 12:46:30;;;;;;;;;;;23.00;70.30;;;;;;5100452;28;19928;-72
2022/07/28 12:48:56;;;;;;;;;;;22.90;70.60;;;;;;5103603;28;19939;-72
2022/07/28 12:51:35;;;;;;;;;;;23.00;70.30;;;;;;5110197;28;19949;-72
2022/07/28 12:54:01;;;;;;;;;;;23.10;70.80;;;;;;5111129;28;19975;-73
2022/07/28 12:56:27;;;;;;;;;;;23.30;70.10;;;;;;5104893;28;19931;-73
2022/07/28 12:59:02;;;;;;;;;;;23.50;70.90;;;;;;5106813;28;19928;-73
2022/07/28 13:01:42;;;;;;;;;;;23.80;69.60;;;;;;5103244;28;20026;-73
2022/07/28 13:04:08;;;;;;;;;;;24.00;68.10;;;;;;5099726;28;19999;-72
2022/07/28 13:06:34;;;;;;;;;;;23.80;67.90;;;;;;5106800;28;20096;-72
2022/07/28 13:08:59;;;;;;;;;;;23.50;68.30;;;;;;5108892;28;19924;-73
2022/07/28 13:11:28;;;;;;;;;;;23.30;67.20;;;;;;5106382;28;20385;-72
2022/07/28 13:13:57;;;;;;;;;;;23.10;68.00;;;;;;5106622;28;20392;-73
2022/07/28 13:16:23;;;;;;;;;;;22.90;68.60;;;;;;5105918;28;20309;-72
2022/07/28 13:18:52;;;;;;;;;;;23.10;69.60;;;;;;5107029;28;19924;-73
2022/07/28 13:21:37;;;;;;;;;;;23.30;70.00;;;;;;5097841;28;19947;-73
2022/07/28 13:24:03;;;;;;;;;;;23.60;69.90;;;;;;5100629;28;19924;-72
2022/07/28 13:26:30;;;;;;;;;;;23.70;67.90;;;;;;5101027;28;20282;-73
2022/07/28 13:29:02;;;;;;;;;;;23.50;68.50;;;;;;5109774;28;19967;-72
2022/07/28 13:31:28;;;;;;;;;;;23.60;68.10;;;;;;5107255;28;19977;-72
2022/07/28 13:33:53;;;;;;;;;;;23.60;68.10;;;;;;5096530;28;20339;-72
2022/07/28 13:36:19;;;;;;;;;;;24.00;67.80;;;;;;5101743;28;19935;-72
2022/07/28 13:38:44;;;;;;;;;;;24.40;67.30;;;;;;5103981;28;19924;-73
2022/07/28 13:41:10;;;;;;;;;;;24.70;67.20;;;;;;5104005;28;19932;-72
2022/07/28 13:43:35;;;;;;;;;;;25.10;67.00;;;;;;5106724;28;20278;-72
2022/07/28 13:46:01;;;;;;;;;;;25.40;65.30;;;;;;5111377;27;20286;-72
2022/07/28 13:48:27;;;;;;;;;;;25.30;65.00;;;;;;5110271;27;19935;-72
2022/07/28 13:50:52;;;;;;;;;;;25.10;65.00;;;;;;5108840;28;19981;-72
2022/07/28 13:53:18;;;;;;;;;;;25.10;65.10;;;;;;5107620;28;20386;-72
2022/07/28 13:55:43;;;;;;;;;;;24.90;64.70;;;;;;5108786;28;19931;-72
2022/07/28 13:58:09;;;;;;;;;;;24.70;64.60;;;;;;5105303;28;19976;-72
2022/07/28 14:00:34;;;;;;;;;;;24.70;65.60;;;;;;5113427;28;19930;-73
2022/07/28 14:03:00;;;;;;;;;;;24.90;64.70;;;;;;5104715;28;19932;-72
2022/07/28 14:05:25;;;;;;;;;;;25.20;64.70;;;;;;5111749;28;19927;-72
2022/07/28 14:07:51;;;;;;;1.45;0.10;;;25.60;64.10;;;;;;5108750;27;19924;-72
2022/07/28 14:10:17;;;;;;;;;;;25.90;63.20;;;;;;5113276;28;20047;-73
2022/07/28 14:12:42;;;;;;;;;;;26.30;61.80;;;;;;5107795;28;19992;-72
2022/07/28 14:15:09;;;;;;;;;;;26.80;62.60;;;;;;5112043;28;19975;-72
2022/07/28 14:17:34;;;;;;;;;;;27.00;60.70;;;;;;5109281;27;19999;-72
2022/07/28 14:20:00;;;;;;;0.98;0.10;;;27.20;60.40;;;;;;5107493;28;20317;-72
2022/07/28 14:22:25;;;;;;;1.55;0.20;;;27.40;59.90;;;;;;5108432;28;20553;-71
2022/07/28 14:24:51;;;;;;;4.20;0.28;;;27.60;60.50;;;;;;5105611;28;20036;-71